EZY59RP EGGW-LPFR
Flight info
| Callsign | EZY59RP |
|---|---|
| Flight time | 3h 20m |
| Altitude | 35000 |
| Route | RODNI N27 ICTAM Q63 CPT Y321 PEPIS Q41 SAM M195 LORKU/N0442F370 DCT BALDA DCT ABUPI DCT ALAGU |
| Aircraft | A320/M-SDE3FGHIRWY/LB1 |
Departure
| Time | 2026-05-01 10:21 |
|---|---|
| Airport | London Luton Airport (EGGW) |
Arrival
| Time | 2026-05-01 13:41 |
|---|---|
| Airport | Faro - Gago Coutinho International Airport (LPFR) |
| Time | Latitude | Longitude | Altitude | Speed | Heading |
|---|---|---|---|---|---|
| 2026-05-01 09:51 | 51.87669 | -0.37177 | 521 ft | 0 kts | 344° |
| 2026-05-01 10:11 | 51.87663 | -0.37174 | 521 ft | 4 kts | 344° |
| 2026-05-01 10:11 | 51.87637 | -0.37162 | 521 ft | 4 kts | 344° |
| 2026-05-01 10:11 | 51.87617 | -0.37153 | 522 ft | 4 kts | 332° |
| 2026-05-01 10:12 | 51.87603 | -0.37125 | 522 ft | 4 kts | 261° |
| 2026-05-01 10:12 | 51.87607 | -0.37099 | 522 ft | 4 kts | 254° |
| 2026-05-01 10:12 | 51.87609 | -0.37090 | 522 ft | 0 kts | 254° |
| 2026-05-01 10:15 | 51.87608 | -0.37095 | 522 ft | 0 kts | 254° |
| 2026-05-01 10:16 | 51.87594 | -0.37176 | 522 ft | 15 kts | 255° |
| 2026-05-01 10:16 | 51.87576 | -0.37328 | 522 ft | 13 kts | 275° |
| 2026-05-01 10:17 | 51.87573 | -0.37447 | 522 ft | 10 kts | 242° |
| 2026-05-01 10:17 | 51.87460 | -0.37794 | 523 ft | 28 kts | 253° |
| 2026-05-01 10:17 | 51.87414 | -0.38010 | 524 ft | 23 kts | 231° |
| 2026-05-01 10:18 | 51.87356 | -0.38076 | 523 ft | 0 kts | 207° |
| 2026-05-01 10:19 | 51.87356 | -0.38077 | 523 ft | 0 kts | 207° |
| 2026-05-01 10:19 | 51.87313 | -0.38105 | 522 ft | 12 kts | 198° |
| 2026-05-01 10:19 | 51.87257 | -0.38082 | 523 ft | 9 kts | 94° |
| 2026-05-01 10:20 | 51.87263 | -0.37993 | 524 ft | 0 kts | 74° |
| 2026-05-01 10:20 | 51.87324 | -0.37631 | 521 ft | 77 kts | 75° |
| 2026-05-01 10:20 | 51.87531 | -0.36406 | 532 ft | 145 kts | 78° |
| 2026-05-01 10:20 | 51.87810 | -0.34733 | 1099 ft | 159 kts | 78° |
| 2026-05-01 10:21 | 51.88096 | -0.32936 | 1777 ft | 170 kts | 81° |
| 2026-05-01 10:21 | 51.88841 | -0.28720 | 2608 ft | 220 kts | 77° |
| 2026-05-01 10:21 | 51.89163 | -0.26193 | 3065 ft | 239 kts | 96° |
| 2026-05-01 10:22 | 51.87638 | -0.22611 | 4319 ft | 249 kts | 158° |
| 2026-05-01 10:22 | 51.84386 | -0.23843 | 6092 ft | 266 kts | 227° |
| 2026-05-01 10:23 | 51.83491 | -0.26508 | 6956 ft | 275 kts | 248° |
| 2026-05-01 10:23 | 51.82658 | -0.32685 | 8656 ft | 285 kts | 257° |
| 2026-05-01 10:23 | 51.82327 | -0.35874 | 9506 ft | 289 kts | 257° |
| 2026-05-01 10:24 | 51.81499 | -0.42405 | 10645 ft | 312 kts | 250° |
| 2026-05-01 10:24 | 51.80268 | -0.49394 | 11855 ft | 330 kts | 253° |
| 2026-05-01 10:25 | 51.78010 | -0.55640 | 13284 ft | 326 kts | 215° |
| 2026-05-01 10:25 | 51.74152 | -0.59528 | 14650 ft | 330 kts | 208° |
| 2026-05-01 10:26 | 51.72178 | -0.61437 | 15327 ft | 333 kts | 208° |
| 2026-05-01 10:26 | 51.70183 | -0.63366 | 15946 ft | 335 kts | 208° |
| 2026-05-01 10:26 | 51.66154 | -0.67268 | 17229 ft | 341 kts | 208° |
| 2026-05-01 10:27 | 51.62062 | -0.71229 | 18483 ft | 346 kts | 208° |
| 2026-05-01 10:27 | 51.57904 | -0.75235 | 19573 ft | 351 kts | 207° |
| 2026-05-01 10:28 | 51.55800 | -0.77265 | 20103 ft | 354 kts | 207° |
| 2026-05-01 10:28 | 51.51541 | -0.81375 | 21152 ft | 360 kts | 207° |
| 2026-05-01 10:28 | 51.49388 | -0.83448 | 21678 ft | 362 kts | 207° |
| 2026-05-01 10:29 | 51.45032 | -0.87630 | 22692 ft | 368 kts | 207° |
| 2026-05-01 10:29 | 51.42800 | -0.89764 | 23178 ft | 370 kts | 207° |
| 2026-05-01 10:30 | 51.38337 | -0.94032 | 24067 ft | 376 kts | 207° |
| 2026-05-01 10:30 | 51.33819 | -0.98344 | 24868 ft | 380 kts | 207° |
| 2026-05-01 10:31 | 51.29241 | -1.02690 | 25646 ft | 385 kts | 207° |
| 2026-05-01 10:31 | 51.24611 | -1.07089 | 26402 ft | 389 kts | 207° |
| 2026-05-01 10:32 | 51.19930 | -1.11537 | 27142 ft | 394 kts | 207° |
| 2026-05-01 10:32 | 51.17565 | -1.13776 | 27509 ft | 396 kts | 207° |
| 2026-05-01 10:32 | 51.12795 | -1.18274 | 28210 ft | 401 kts | 207° |
| 2026-05-01 10:33 | 51.07968 | -1.22821 | 28898 ft | 406 kts | 207° |
| 2026-05-01 10:33 | 51.03083 | -1.27418 | 29577 ft | 410 kts | 207° |
| 2026-05-01 10:34 | 51.00618 | -1.29733 | 29907 ft | 413 kts | 207° |
| 2026-05-01 10:34 | 50.98137 | -1.32053 | 30231 ft | 415 kts | 207° |
| 2026-05-01 10:34 | 50.95641 | -1.34380 | 30508 ft | 417 kts | 207° |
| 2026-05-01 10:35 | 50.90696 | -1.39313 | 31063 ft | 422 kts | 210° |
| 2026-05-01 10:35 | 50.88251 | -1.41907 | 31318 ft | 424 kts | 211° |
| 2026-05-01 10:35 | 50.85800 | -1.44535 | 31581 ft | 426 kts | 211° |
| 2026-05-01 10:35 | 50.83342 | -1.47157 | 31830 ft | 427 kts | 211° |
| 2026-05-01 10:36 | 50.78398 | -1.52346 | 32555 ft | 425 kts | 210° |
| 2026-05-01 10:36 | 50.75924 | -1.54907 | 32908 ft | 425 kts | 210° |
| 2026-05-01 10:36 | 50.73454 | -1.57452 | 33261 ft | 424 kts | 210° |
| 2026-05-01 10:37 | 50.70987 | -1.59990 | 33598 ft | 423 kts | 210° |
| 2026-05-01 10:37 | 50.66053 | -1.65057 | 34274 ft | 422 kts | 210° |
| 2026-05-01 10:37 | 50.63598 | -1.67579 | 34546 ft | 422 kts | 210° |
| 2026-05-01 10:38 | 50.61141 | -1.70099 | 34811 ft | 421 kts | 210° |
| 2026-05-01 10:38 | 50.58684 | -1.72619 | 35064 ft | 421 kts | 210° |
| 2026-05-01 10:38 | 50.56227 | -1.75136 | 35180 ft | 420 kts | 210° |
| 2026-05-01 10:38 | 50.53818 | -1.77606 | 35194 ft | 407 kts | 210° |
| 2026-05-01 10:39 | 50.49132 | -1.82402 | 35205 ft | 399 kts | 210° |
| 2026-05-01 10:39 | 50.44477 | -1.87140 | 35211 ft | 398 kts | 210° |
| 2026-05-01 10:40 | 50.39828 | -1.91869 | 35214 ft | 398 kts | 210° |
| 2026-05-01 10:40 | 50.35170 | -1.96590 | 35218 ft | 398 kts | 210° |
| 2026-05-01 10:41 | 50.30517 | -2.01297 | 35221 ft | 398 kts | 210° |
| 2026-05-01 10:42 | 50.23534 | -2.08325 | 35227 ft | 398 kts | 210° |
| 2026-05-01 10:42 | 50.18844 | -2.12915 | 35217 ft | 398 kts | 209° |
| 2026-05-01 10:43 | 50.14141 | -2.17465 | 35221 ft | 398 kts | 209° |
| 2026-05-01 10:43 | 50.09442 | -2.22022 | 35226 ft | 398 kts | 209° |
| 2026-05-01 10:44 | 50.04742 | -2.26574 | 35227 ft | 398 kts | 209° |
| 2026-05-01 10:44 | 50.00040 | -2.31110 | 35229 ft | 398 kts | 209° |
| 2026-05-01 10:45 | 49.95309 | -2.35667 | 35229 ft | 398 kts | 209° |
| 2026-05-01 10:45 | 49.90369 | -2.39412 | 35234 ft | 395 kts | 201° |
| 2026-05-01 10:46 | 49.85320 | -2.42764 | 35227 ft | 395 kts | 201° |
| 2026-05-01 10:46 | 49.80274 | -2.46116 | 35230 ft | 394 kts | 201° |
| 2026-05-01 10:47 | 49.75232 | -2.49451 | 35236 ft | 394 kts | 201° |
| 2026-05-01 10:47 | 49.70187 | -2.52780 | 35234 ft | 394 kts | 201° |
| 2026-05-01 10:48 | 49.65155 | -2.56106 | 35242 ft | 393 kts | 201° |
| 2026-05-01 10:48 | 49.60122 | -2.59427 | 35236 ft | 393 kts | 200° |
| 2026-05-01 10:49 | 49.55095 | -2.62720 | 35228 ft | 393 kts | 200° |
| 2026-05-01 10:49 | 49.50065 | -2.66014 | 35237 ft | 392 kts | 200° |
| 2026-05-01 10:50 | 49.45046 | -2.69294 | 35235 ft | 392 kts | 200° |
| 2026-05-01 10:50 | 49.40023 | -2.72566 | 35232 ft | 392 kts | 200° |
| 2026-05-01 10:51 | 49.35005 | -2.75823 | 35239 ft | 391 kts | 200° |
| 2026-05-01 10:51 | 49.29991 | -2.79082 | 35240 ft | 391 kts | 200° |
| 2026-05-01 10:52 | 49.24982 | -2.82341 | 35244 ft | 391 kts | 200° |
| 2026-05-01 10:52 | 49.19974 | -2.85577 | 35253 ft | 391 kts | 200° |
| 2026-05-01 10:53 | 49.14959 | -2.88807 | 35252 ft | 391 kts | 200° |
| 2026-05-01 10:53 | 49.09953 | -2.92023 | 35254 ft | 391 kts | 200° |
| 2026-05-01 10:54 | 49.04942 | -2.95241 | 35257 ft | 390 kts | 200° |
| 2026-05-01 10:54 | 48.99901 | -2.98468 | 35249 ft | 390 kts | 199° |
| 2026-05-01 10:55 | 48.94890 | -3.01668 | 35248 ft | 391 kts | 199° |
| 2026-05-01 10:55 | 48.89876 | -3.04866 | 35243 ft | 391 kts | 199° |
| 2026-05-01 10:56 | 48.84858 | -3.08056 | 35236 ft | 391 kts | 199° |
| 2026-05-01 10:56 | 48.80685 | -3.10704 | 35232 ft | 391 kts | 199° |
| 2026-05-01 10:57 | 48.75664 | -3.13893 | 35231 ft | 391 kts | 200° |
| 2026-05-01 10:57 | 48.70642 | -3.17079 | 35226 ft | 391 kts | 199° |
| 2026-05-01 10:58 | 48.65614 | -3.20246 | 35227 ft | 391 kts | 199° |
| 2026-05-01 10:58 | 48.60584 | -3.23413 | 35223 ft | 391 kts | 199° |
| 2026-05-01 10:59 | 48.55554 | -3.26571 | 35225 ft | 391 kts | 199° |
| 2026-05-01 10:59 | 48.50523 | -3.29729 | 35224 ft | 392 kts | 199° |
| 2026-05-01 11:00 | 48.45489 | -3.32871 | 35229 ft | 391 kts | 199° |
| 2026-05-01 11:00 | 48.40425 | -3.36030 | 35228 ft | 391 kts | 199° |
| 2026-05-01 11:01 | 48.35400 | -3.39171 | 35230 ft | 391 kts | 199° |
| 2026-05-01 11:01 | 48.30381 | -3.42299 | 35232 ft | 391 kts | 199° |
| 2026-05-01 11:02 | 48.25355 | -3.45410 | 35228 ft | 390 kts | 200° |
| 2026-05-01 11:02 | 48.20340 | -3.48510 | 35229 ft | 390 kts | 199° |
| 2026-05-01 11:03 | 48.15323 | -3.51604 | 35232 ft | 389 kts | 200° |
| 2026-05-01 11:03 | 48.10314 | -3.54700 | 35231 ft | 389 kts | 200° |
| 2026-05-01 11:04 | 48.05305 | -3.57784 | 35224 ft | 389 kts | 200° |
| 2026-05-01 11:04 | 48.00300 | -3.60854 | 35224 ft | 389 kts | 200° |
| 2026-05-01 11:05 | 47.95294 | -3.63912 | 35215 ft | 389 kts | 200° |
| 2026-05-01 11:05 | 47.90287 | -3.66976 | 35216 ft | 389 kts | 200° |
| 2026-05-01 11:06 | 47.85282 | -3.70027 | 35211 ft | 389 kts | 200° |
| 2026-05-01 11:06 | 47.80277 | -3.73071 | 35215 ft | 389 kts | 200° |
| 2026-05-01 11:07 | 47.72771 | -3.77632 | 35216 ft | 388 kts | 200° |
| 2026-05-01 11:07 | 47.67771 | -3.80662 | 35215 ft | 388 kts | 200° |
| 2026-05-01 11:08 | 47.62760 | -3.83689 | 35221 ft | 388 kts | 200° |
| 2026-05-01 11:09 | 47.55250 | -3.88212 | 35226 ft | 389 kts | 200° |
| 2026-05-01 11:09 | 47.50240 | -3.91221 | 35226 ft | 389 kts | 200° |
| 2026-05-01 11:10 | 47.42721 | -3.95732 | 35225 ft | 389 kts | 201° |
| 2026-05-01 11:10 | 47.37709 | -3.98737 | 35227 ft | 389 kts | 201° |
| 2026-05-01 11:11 | 47.32689 | -4.01730 | 35228 ft | 389 kts | 201° |
| 2026-05-01 11:11 | 47.27671 | -4.04720 | 35230 ft | 389 kts | 201° |
| 2026-05-01 11:12 | 47.22648 | -4.07704 | 35232 ft | 389 kts | 201° |
| 2026-05-01 11:12 | 47.17621 | -4.10686 | 35231 ft | 390 kts | 201° |
| 2026-05-01 11:13 | 47.12591 | -4.13655 | 35229 ft | 390 kts | 202° |
| 2026-05-01 11:13 | 47.07556 | -4.16619 | 35231 ft | 390 kts | 202° |
| 2026-05-01 11:14 | 47.02514 | -4.19593 | 35233 ft | 391 kts | 202° |
| 2026-05-01 11:14 | 46.97467 | -4.22567 | 35230 ft | 391 kts | 202° |
| 2026-05-01 11:15 | 46.92412 | -4.25536 | 35232 ft | 392 kts | 202° |
| 2026-05-01 11:15 | 46.87356 | -4.28505 | 35231 ft | 392 kts | 202° |
| 2026-05-01 11:16 | 46.82288 | -4.31467 | 35231 ft | 392 kts | 202° |
| 2026-05-01 11:16 | 46.77212 | -4.34427 | 35228 ft | 393 kts | 202° |
| 2026-05-01 11:17 | 46.72130 | -4.37389 | 35229 ft | 393 kts | 202° |
| 2026-05-01 11:17 | 46.67044 | -4.40342 | 35228 ft | 394 kts | 202° |
| 2026-05-01 11:18 | 46.61950 | -4.43295 | 35228 ft | 394 kts | 202° |
| 2026-05-01 11:18 | 46.56853 | -4.46252 | 35229 ft | 394 kts | 202° |
| 2026-05-01 11:19 | 46.51751 | -4.49200 | 35230 ft | 395 kts | 202° |
| 2026-05-01 11:19 | 46.46645 | -4.52139 | 35234 ft | 395 kts | 202° |
| 2026-05-01 11:20 | 46.41534 | -4.55075 | 35235 ft | 395 kts | 202° |
| 2026-05-01 11:20 | 46.36427 | -4.58004 | 35229 ft | 395 kts | 203° |
| 2026-05-01 11:21 | 46.31322 | -4.60936 | 35236 ft | 395 kts | 203° |
| 2026-05-01 11:21 | 46.26213 | -4.63851 | 35231 ft | 394 kts | 203° |
| 2026-05-01 11:22 | 46.21108 | -4.66760 | 35232 ft | 394 kts | 203° |
| 2026-05-01 11:22 | 46.16003 | -4.69672 | 35234 ft | 394 kts | 203° |
| 2026-05-01 11:23 | 46.10904 | -4.72569 | 35231 ft | 394 kts | 203° |
| 2026-05-01 11:23 | 46.05802 | -4.75467 | 35234 ft | 394 kts | 203° |
| 2026-05-01 11:24 | 46.00704 | -4.78355 | 35238 ft | 394 kts | 203° |
| 2026-05-01 11:25 | 45.93058 | -4.82672 | 35236 ft | 393 kts | 203° |
| 2026-05-01 11:25 | 45.85421 | -4.86965 | 35240 ft | 393 kts | 203° |
| 2026-05-01 11:26 | 45.77799 | -4.91248 | 35236 ft | 392 kts | 203° |
| 2026-05-01 11:27 | 45.72722 | -4.94093 | 35232 ft | 391 kts | 203° |
| 2026-05-01 11:27 | 45.67650 | -4.96927 | 35230 ft | 391 kts | 203° |
| 2026-05-01 11:28 | 45.62579 | -4.99745 | 35230 ft | 391 kts | 203° |
| 2026-05-01 11:28 | 45.57518 | -5.02572 | 35232 ft | 390 kts | 203° |
| 2026-05-01 11:29 | 45.49935 | -5.06784 | 35224 ft | 390 kts | 203° |
| 2026-05-01 11:30 | 45.42362 | -5.10962 | 35220 ft | 389 kts | 203° |
| 2026-05-01 11:30 | 45.37323 | -5.13759 | 35218 ft | 388 kts | 203° |
| 2026-05-01 11:31 | 45.32288 | -5.16546 | 35217 ft | 388 kts | 203° |
| 2026-05-01 11:31 | 45.27256 | -5.19315 | 35221 ft | 388 kts | 202° |
| 2026-05-01 11:32 | 45.22226 | -5.22076 | 35215 ft | 387 kts | 203° |
| 2026-05-01 11:32 | 45.17206 | -5.24822 | 35219 ft | 387 kts | 202° |
| 2026-05-01 11:33 | 45.12188 | -5.27566 | 35216 ft | 386 kts | 203° |
| 2026-05-01 11:33 | 45.07185 | -5.30308 | 35218 ft | 385 kts | 202° |
| 2026-05-01 11:34 | 45.02184 | -5.33027 | 35216 ft | 385 kts | 202° |
| 2026-05-01 11:34 | 44.97193 | -5.35749 | 35216 ft | 384 kts | 202° |
| 2026-05-01 11:35 | 44.93014 | -5.38019 | 35213 ft | 384 kts | 202° |
| 2026-05-01 11:35 | 44.88034 | -5.40724 | 35211 ft | 383 kts | 202° |
| 2026-05-01 11:36 | 44.83072 | -5.43399 | 35220 ft | 380 kts | 202° |
| 2026-05-01 11:36 | 44.78157 | -5.46049 | 35230 ft | 377 kts | 202° |
| 2026-05-01 11:37 | 44.73267 | -5.48689 | 35228 ft | 375 kts | 202° |
| 2026-05-01 11:37 | 44.68406 | -5.51313 | 35224 ft | 374 kts | 202° |
| 2026-05-01 11:38 | 44.63549 | -5.53925 | 35220 ft | 373 kts | 202° |
| 2026-05-01 11:38 | 44.58717 | -5.56581 | 35211 ft | 373 kts | 204° |
| 2026-05-01 11:39 | 44.53976 | -5.59520 | 35210 ft | 372 kts | 205° |
| 2026-05-01 11:39 | 44.49262 | -5.62521 | 35201 ft | 372 kts | 205° |
| 2026-05-01 11:40 | 44.44537 | -5.65472 | 35200 ft | 372 kts | 205° |
| 2026-05-01 11:40 | 44.39799 | -5.68396 | 35199 ft | 372 kts | 205° |
| 2026-05-01 11:41 | 44.35063 | -5.71296 | 35194 ft | 372 kts | 205° |
| 2026-05-01 11:41 | 44.30324 | -5.74196 | 35194 ft | 372 kts | 205° |
| 2026-05-01 11:42 | 44.25591 | -5.77094 | 35189 ft | 371 kts | 205° |
| 2026-05-01 11:42 | 44.20858 | -5.79987 | 35187 ft | 371 kts | 205° |
| 2026-05-01 11:43 | 44.16123 | -5.82875 | 35187 ft | 371 kts | 204° |
| 2026-05-01 11:43 | 44.11387 | -5.85759 | 35186 ft | 371 kts | 204° |
| 2026-05-01 11:44 | 44.04291 | -5.90077 | 35182 ft | 371 kts | 204° |
| 2026-05-01 11:44 | 43.99559 | -5.92942 | 35181 ft | 371 kts | 204° |
| 2026-05-01 11:45 | 43.94830 | -5.95806 | 35181 ft | 371 kts | 204° |
| 2026-05-01 11:45 | 43.90101 | -5.98660 | 35171 ft | 371 kts | 204° |
| 2026-05-01 11:46 | 43.85375 | -6.01510 | 35166 ft | 371 kts | 204° |
| 2026-05-01 11:46 | 43.80645 | -6.04359 | 35165 ft | 371 kts | 204° |
| 2026-05-01 11:47 | 43.75914 | -6.07200 | 35160 ft | 371 kts | 204° |
| 2026-05-01 11:47 | 43.71178 | -6.10042 | 35160 ft | 371 kts | 204° |
| 2026-05-01 11:48 | 43.66472 | -6.12865 | 35161 ft | 371 kts | 204° |
| 2026-05-01 11:48 | 43.61735 | -6.15698 | 35162 ft | 371 kts | 204° |
| 2026-05-01 11:49 | 43.57000 | -6.18527 | 35160 ft | 371 kts | 204° |
| 2026-05-01 11:49 | 43.52263 | -6.21348 | 35160 ft | 371 kts | 204° |
| 2026-05-01 11:50 | 43.47525 | -6.24166 | 35159 ft | 371 kts | 204° |
| 2026-05-01 11:50 | 43.42786 | -6.26981 | 35151 ft | 371 kts | 204° |
| 2026-05-01 11:51 | 43.38043 | -6.29793 | 35145 ft | 371 kts | 204° |
| 2026-05-01 11:51 | 43.33303 | -6.32603 | 35139 ft | 371 kts | 204° |
| 2026-05-01 11:52 | 43.28553 | -6.35415 | 35137 ft | 372 kts | 204° |
| 2026-05-01 11:52 | 43.23805 | -6.38212 | 35135 ft | 372 kts | 204° |
| 2026-05-01 11:53 | 43.19049 | -6.41011 | 35135 ft | 372 kts | 204° |
| 2026-05-01 11:53 | 43.14298 | -6.43805 | 35129 ft | 372 kts | 204° |
| 2026-05-01 11:54 | 43.09537 | -6.46603 | 35130 ft | 372 kts | 204° |
| 2026-05-01 11:54 | 43.04776 | -6.49397 | 35128 ft | 372 kts | 204° |
| 2026-05-01 11:55 | 43.00010 | -6.52183 | 35128 ft | 373 kts | 204° |
| 2026-05-01 11:55 | 42.95241 | -6.54966 | 35129 ft | 373 kts | 204° |
| 2026-05-01 11:56 | 42.90475 | -6.57743 | 35128 ft | 372 kts | 204° |
| 2026-05-01 11:56 | 42.85709 | -6.60513 | 35129 ft | 373 kts | 204° |
| 2026-05-01 11:57 | 42.80938 | -6.63285 | 35134 ft | 373 kts | 204° |
| 2026-05-01 11:57 | 42.76166 | -6.66050 | 35132 ft | 373 kts | 204° |
| 2026-05-01 11:58 | 42.71389 | -6.68814 | 35134 ft | 373 kts | 204° |
| 2026-05-01 11:59 | 42.64228 | -6.72959 | 35136 ft | 373 kts | 204° |
| 2026-05-01 11:59 | 42.59450 | -6.75719 | 35132 ft | 373 kts | 204° |
| 2026-05-01 12:00 | 42.52282 | -6.79846 | 35135 ft | 373 kts | 204° |
| 2026-05-01 12:01 | 42.45103 | -6.83954 | 35132 ft | 373 kts | 204° |
| 2026-05-01 12:01 | 42.40285 | -6.86718 | 35139 ft | 374 kts | 204° |
| 2026-05-01 12:02 | 42.35528 | -6.89443 | 35132 ft | 373 kts | 205° |
| 2026-05-01 12:02 | 42.30746 | -6.92180 | 35141 ft | 374 kts | 205° |
| 2026-05-01 12:03 | 42.25957 | -6.94911 | 35145 ft | 374 kts | 205° |
| 2026-05-01 12:03 | 42.21133 | -6.97660 | 35146 ft | 374 kts | 205° |
| 2026-05-01 12:04 | 42.16336 | -7.00382 | 35143 ft | 374 kts | 205° |
| 2026-05-01 12:04 | 42.11536 | -7.03094 | 35144 ft | 374 kts | 205° |
| 2026-05-01 12:05 | 42.06736 | -7.05806 | 35148 ft | 374 kts | 205° |
| 2026-05-01 12:05 | 41.99539 | -7.09884 | 35147 ft | 374 kts | 205° |
| 2026-05-01 12:06 | 41.94737 | -7.12592 | 35142 ft | 374 kts | 205° |
| 2026-05-01 12:06 | 41.89927 | -7.15298 | 35149 ft | 375 kts | 205° |
| 2026-05-01 12:07 | 41.85123 | -7.18000 | 35149 ft | 375 kts | 205° |
| 2026-05-01 12:07 | 41.80307 | -7.20697 | 35150 ft | 375 kts | 205° |
| 2026-05-01 12:08 | 41.75449 | -7.23248 | 35146 ft | 377 kts | 198° |
| 2026-05-01 12:08 | 41.70211 | -7.24150 | 35149 ft | 382 kts | 188° |
| 2026-05-01 12:09 | 41.64910 | -7.24720 | 35147 ft | 382 kts | 189° |
| 2026-05-01 12:09 | 41.59615 | -7.25296 | 35149 ft | 382 kts | 189° |
| 2026-05-01 12:10 | 41.51662 | -7.26152 | 35139 ft | 382 kts | 189° |
| 2026-05-01 12:11 | 41.44569 | -7.26913 | 35140 ft | 383 kts | 189° |
| 2026-05-01 12:11 | 41.39262 | -7.27491 | 35139 ft | 383 kts | 189° |
| 2026-05-01 12:12 | 41.33950 | -7.28071 | 35138 ft | 383 kts | 189° |
| 2026-05-01 12:12 | 41.28632 | -7.28644 | 35135 ft | 383 kts | 189° |
| 2026-05-01 12:13 | 41.23314 | -7.29214 | 35134 ft | 384 kts | 189° |
| 2026-05-01 12:13 | 41.17989 | -7.29785 | 35133 ft | 384 kts | 189° |
| 2026-05-01 12:14 | 41.12662 | -7.30353 | 35127 ft | 384 kts | 189° |
| 2026-05-01 12:14 | 41.07340 | -7.30919 | 35133 ft | 384 kts | 189° |
| 2026-05-01 12:15 | 41.02004 | -7.31498 | 35135 ft | 384 kts | 190° |
| 2026-05-01 12:15 | 40.96673 | -7.32067 | 35137 ft | 385 kts | 190° |
| 2026-05-01 12:16 | 40.91298 | -7.32634 | 35140 ft | 385 kts | 190° |
| 2026-05-01 12:16 | 40.85960 | -7.33205 | 35145 ft | 385 kts | 190° |
| 2026-05-01 12:17 | 40.80647 | -7.33765 | 35140 ft | 385 kts | 190° |
| 2026-05-01 12:17 | 40.75273 | -7.34335 | 35141 ft | 385 kts | 190° |
| 2026-05-01 12:18 | 40.69929 | -7.34907 | 35142 ft | 385 kts | 191° |
| 2026-05-01 12:18 | 40.64587 | -7.35465 | 35139 ft | 385 kts | 191° |
| 2026-05-01 12:19 | 40.59243 | -7.36019 | 35138 ft | 385 kts | 191° |
| 2026-05-01 12:19 | 40.53896 | -7.36583 | 35139 ft | 385 kts | 191° |
| 2026-05-01 12:20 | 40.48549 | -7.37152 | 35140 ft | 386 kts | 191° |
| 2026-05-01 12:20 | 40.43199 | -7.37714 | 35141 ft | 386 kts | 191° |
| 2026-05-01 12:21 | 40.37847 | -7.38269 | 35140 ft | 386 kts | 191° |
| 2026-05-01 12:21 | 40.32495 | -7.38826 | 35143 ft | 386 kts | 191° |
| 2026-05-01 12:22 | 40.27141 | -7.39383 | 35140 ft | 386 kts | 192° |
| 2026-05-01 12:22 | 40.21789 | -7.39944 | 35138 ft | 386 kts | 192° |
| 2026-05-01 12:23 | 40.16429 | -7.40497 | 35140 ft | 386 kts | 192° |
| 2026-05-01 12:23 | 40.11069 | -7.41055 | 35140 ft | 386 kts | 192° |
| 2026-05-01 12:24 | 40.05707 | -7.41619 | 35138 ft | 387 kts | 192° |
| 2026-05-01 12:24 | 40.00340 | -7.42171 | 35141 ft | 387 kts | 192° |
| 2026-05-01 12:25 | 39.92299 | -7.43007 | 35140 ft | 387 kts | 192° |
| 2026-05-01 12:26 | 39.86935 | -7.43558 | 35137 ft | 387 kts | 192° |
| 2026-05-01 12:26 | 39.81087 | -7.44156 | 35135 ft | 0 kts | 192° |
| 2026-05-01 12:43 | 39.81962 | -7.44143 | 34931 ft | 376 kts | 349° |
| 2026-05-01 12:43 | 39.84477 | -7.44246 | 35095 ft | 343 kts | 335° |
| 2026-05-01 12:43 | 39.86483 | -7.45460 | 35127 ft | 301 kts | 307° |
| 2026-05-01 12:44 | 39.87776 | -7.47464 | 34893 ft | 289 kts | 303° |
| 2026-05-01 12:44 | 39.89343 | -7.49158 | 34599 ft | 299 kts | 319° |
| 2026-05-01 12:44 | 39.93070 | -7.51630 | 33839 ft | 292 kts | 327° |
| 2026-05-01 12:45 | 39.96957 | -7.53321 | 32880 ft | 306 kts | 333° |
| 2026-05-01 12:45 | 39.99023 | -7.54048 | 32555 ft | 301 kts | 323° |
| 2026-05-01 12:45 | 40.00587 | -7.55669 | 31678 ft | 290 kts | 293° |
| 2026-05-01 12:46 | 40.01242 | -7.58303 | 30306 ft | 332 kts | 270° |
| 2026-05-01 12:46 | 40.00955 | -7.61511 | 28780 ft | 383 kts | 251° |
| 2026-05-01 12:46 | 39.99565 | -7.64707 | 27180 ft | 433 kts | 230° |
| 2026-05-01 12:46 | 39.97081 | -7.67270 | 26057 ft | 476 kts | 212° |
| 2026-05-01 12:47 | 39.94234 | -7.69236 | 26387 ft | 448 kts | 210° |
| 2026-05-01 12:47 | 39.91360 | -7.70589 | 26232 ft | 437 kts | 193° |
| 2026-05-01 12:47 | 39.88351 | -7.70506 | 26050 ft | 433 kts | 172° |
| 2026-05-01 12:47 | 39.85496 | -7.69417 | 25921 ft | 420 kts | 168° |
| 2026-05-01 12:48 | 39.82758 | -7.68291 | 25791 ft | 405 kts | 168° |
| 2026-05-01 12:48 | 39.80998 | -7.67560 | 25711 ft | 396 kts | 168° |
| 2026-05-01 12:48 | 39.78406 | -7.66602 | 25583 ft | 376 kts | 177° |
| 2026-05-01 12:48 | 39.75868 | -7.66402 | 25432 ft | 359 kts | 184° |
| 2026-05-01 12:49 | 39.73397 | -7.66340 | 25110 ft | 353 kts | 184° |
| 2026-05-01 12:49 | 39.70957 | -7.66292 | 24723 ft | 349 kts | 184° |
| 2026-05-01 12:49 | 39.68534 | -7.66250 | 24321 ft | 346 kts | 184° |
| 2026-05-01 12:49 | 39.66134 | -7.66209 | 24140 ft | 345 kts | 184° |
| 2026-05-01 12:50 | 39.63729 | -7.66168 | 24147 ft | 346 kts | 184° |
| 2026-05-01 12:50 | 39.61315 | -7.66124 | 24149 ft | 347 kts | 184° |
| 2026-05-01 12:50 | 39.58902 | -7.66073 | 24148 ft | 347 kts | 184° |
| 2026-05-01 12:50 | 39.56487 | -7.66018 | 24148 ft | 347 kts | 184° |
| 2026-05-01 12:51 | 39.54070 | -7.65963 | 24152 ft | 347 kts | 184° |
| 2026-05-01 12:51 | 39.51654 | -7.65912 | 24151 ft | 347 kts | 184° |
| 2026-05-01 12:51 | 39.46828 | -7.65808 | 24150 ft | 348 kts | 184° |
| 2026-05-01 12:52 | 39.44397 | -7.65750 | 24150 ft | 348 kts | 184° |
| 2026-05-01 12:52 | 39.39555 | -7.65641 | 24151 ft | 348 kts | 184° |
| 2026-05-01 12:52 | 39.37134 | -7.65588 | 24145 ft | 348 kts | 184° |
| 2026-05-01 12:53 | 39.32285 | -7.65483 | 24150 ft | 348 kts | 184° |
| 2026-05-01 12:53 | 39.29861 | -7.65432 | 24148 ft | 349 kts | 184° |
| 2026-05-01 12:53 | 39.27434 | -7.65382 | 24149 ft | 349 kts | 184° |
| 2026-05-01 12:54 | 39.25007 | -7.65330 | 24146 ft | 349 kts | 184° |
| 2026-05-01 12:54 | 39.20149 | -7.65224 | 24144 ft | 349 kts | 184° |
| 2026-05-01 12:54 | 39.17721 | -7.65168 | 24145 ft | 349 kts | 184° |
| 2026-05-01 12:55 | 39.12859 | -7.65062 | 24148 ft | 350 kts | 184° |
| 2026-05-01 12:55 | 39.10426 | -7.65014 | 24145 ft | 350 kts | 184° |
| 2026-05-01 12:55 | 39.07996 | -7.64967 | 24144 ft | 350 kts | 184° |
| 2026-05-01 12:56 | 39.05560 | -7.64917 | 24144 ft | 350 kts | 184° |
| 2026-05-01 12:56 | 39.03126 | -7.64866 | 24144 ft | 350 kts | 184° |
| 2026-05-01 12:56 | 39.00685 | -7.64811 | 24143 ft | 350 kts | 184° |
| 2026-05-01 12:56 | 38.98248 | -7.64758 | 24143 ft | 351 kts | 184° |
| 2026-05-01 12:57 | 38.95811 | -7.64705 | 24139 ft | 350 kts | 184° |
| 2026-05-01 12:57 | 38.90931 | -7.64598 | 24137 ft | 351 kts | 184° |
| 2026-05-01 12:57 | 38.88492 | -7.64548 | 24137 ft | 351 kts | 184° |
| 2026-05-01 12:58 | 38.86049 | -7.64497 | 24146 ft | 351 kts | 184° |
| 2026-05-01 12:58 | 38.83607 | -7.64444 | 24145 ft | 351 kts | 184° |
| 2026-05-01 12:58 | 38.81162 | -7.64390 | 24140 ft | 352 kts | 184° |
| 2026-05-01 12:59 | 38.76238 | -7.64284 | 24139 ft | 352 kts | 184° |
| 2026-05-01 12:59 | 38.73788 | -7.64232 | 24138 ft | 352 kts | 184° |
| 2026-05-01 12:59 | 38.68919 | -7.64126 | 24140 ft | 352 kts | 184° |
| 2026-05-01 13:00 | 38.63981 | -7.64010 | 24141 ft | 352 kts | 184° |
| 2026-05-01 13:00 | 38.61531 | -7.63957 | 24137 ft | 353 kts | 185° |
| 2026-05-01 13:01 | 38.56635 | -7.63856 | 23764 ft | 349 kts | 184° |
| 2026-05-01 13:01 | 38.54215 | -7.63805 | 23313 ft | 347 kts | 184° |
| 2026-05-01 13:01 | 38.49424 | -7.63708 | 22464 ft | 341 kts | 184° |
| 2026-05-01 13:02 | 38.47063 | -7.63659 | 22061 ft | 338 kts | 184° |
| 2026-05-01 13:07 | 38.01279 | -7.62707 | 14768 ft | 294 kts | 181° |
| 2026-05-01 13:07 | 37.99240 | -7.62664 | 14487 ft | 292 kts | 181° |
| 2026-05-01 13:07 | 37.97213 | -7.62623 | 14185 ft | 291 kts | 181° |
| 2026-05-01 13:08 | 37.95192 | -7.62583 | 13887 ft | 289 kts | 181° |
| 2026-05-01 13:08 | 37.93185 | -7.62543 | 13557 ft | 288 kts | 181° |
| 2026-05-01 13:08 | 37.91189 | -7.62501 | 13217 ft | 286 kts | 181° |
| 2026-05-01 13:08 | 37.89201 | -7.62460 | 12874 ft | 285 kts | 181° |
| 2026-05-01 13:09 | 37.87220 | -7.62417 | 12540 ft | 284 kts | 181° |
| 2026-05-01 13:09 | 37.85249 | -7.62376 | 12204 ft | 283 kts | 181° |
| 2026-05-01 13:09 | 37.83286 | -7.62336 | 11866 ft | 281 kts | 181° |
| 2026-05-01 13:09 | 37.81333 | -7.62294 | 11531 ft | 280 kts | 180° |
| 2026-05-01 13:10 | 37.79386 | -7.62252 | 11185 ft | 279 kts | 180° |
| 2026-05-01 13:10 | 37.77451 | -7.62212 | 10860 ft | 278 kts | 181° |
| 2026-05-01 13:10 | 37.75521 | -7.62182 | 10517 ft | 277 kts | 181° |
| 2026-05-01 13:10 | 37.73601 | -7.62161 | 10205 ft | 275 kts | 181° |
| 2026-05-01 13:11 | 37.71693 | -7.62143 | 10132 ft | 274 kts | 181° |
| 2026-05-01 13:11 | 37.69782 | -7.62120 | 10141 ft | 275 kts | 181° |
| 2026-05-01 13:11 | 37.67866 | -7.62100 | 10139 ft | 275 kts | 181° |
| 2026-05-01 13:11 | 37.65953 | -7.62082 | 10141 ft | 275 kts | 181° |
| 2026-05-01 13:12 | 37.64039 | -7.62065 | 10145 ft | 275 kts | 181° |
| 2026-05-01 13:12 | 37.62125 | -7.62046 | 10147 ft | 275 kts | 181° |
| 2026-05-01 13:12 | 37.60211 | -7.62028 | 10145 ft | 275 kts | 181° |
| 2026-05-01 13:12 | 37.58296 | -7.62009 | 10144 ft | 275 kts | 181° |
| 2026-05-01 13:13 | 37.56382 | -7.61986 | 10140 ft | 275 kts | 181° |
| 2026-05-01 13:13 | 37.54468 | -7.61964 | 10148 ft | 275 kts | 181° |
| 2026-05-01 13:13 | 37.52555 | -7.61944 | 10149 ft | 275 kts | 181° |
| 2026-05-01 13:13 | 37.50639 | -7.61924 | 10155 ft | 275 kts | 181° |
| 2026-05-01 13:14 | 37.48722 | -7.61905 | 10147 ft | 276 kts | 181° |
| 2026-05-01 13:14 | 37.46806 | -7.61884 | 10152 ft | 276 kts | 181° |
| 2026-05-01 13:14 | 37.44889 | -7.61861 | 10153 ft | 276 kts | 181° |
| 2026-05-01 13:14 | 37.42971 | -7.61840 | 10151 ft | 275 kts | 181° |
| 2026-05-01 13:15 | 37.41055 | -7.61822 | 10150 ft | 275 kts | 181° |
| 2026-05-01 13:15 | 37.39140 | -7.61802 | 10155 ft | 275 kts | 181° |
| 2026-05-01 13:15 | 37.37226 | -7.61782 | 10153 ft | 275 kts | 181° |
| 2026-05-01 13:15 | 37.35308 | -7.61762 | 10151 ft | 275 kts | 181° |
| 2026-05-01 13:16 | 37.33370 | -7.61745 | 10155 ft | 275 kts | 181° |
| 2026-05-01 13:16 | 37.31453 | -7.61724 | 10156 ft | 276 kts | 181° |
| 2026-05-01 13:16 | 37.29534 | -7.61704 | 10158 ft | 276 kts | 181° |
| 2026-05-01 13:17 | 37.23771 | -7.61639 | 10162 ft | 276 kts | 181° |
| 2026-05-01 13:17 | 37.21847 | -7.61618 | 10160 ft | 277 kts | 181° |
| 2026-05-01 13:18 | 37.17999 | -7.61576 | 10160 ft | 276 kts | 181° |
| 2026-05-01 13:18 | 37.16075 | -7.61557 | 10164 ft | 276 kts | 181° |
| 2026-05-01 13:18 | 37.14151 | -7.61540 | 10169 ft | 277 kts | 181° |
| 2026-05-01 13:18 | 37.12225 | -7.61522 | 10167 ft | 277 kts | 181° |
| 2026-05-01 13:19 | 37.10299 | -7.61502 | 10166 ft | 277 kts | 181° |
| 2026-05-01 13:19 | 37.08392 | -7.61625 | 10166 ft | 269 kts | 192° |
| 2026-05-01 13:19 | 37.05108 | -7.63208 | 10169 ft | 239 kts | 204° |
| 2026-05-01 13:20 | 37.03636 | -7.64021 | 10164 ft | 224 kts | 204° |
| 2026-05-01 13:20 | 37.02257 | -7.64779 | 10156 ft | 209 kts | 204° |
| 2026-05-01 13:20 | 37.00968 | -7.65490 | 10166 ft | 198 kts | 204° |
| 2026-05-01 13:21 | 36.98474 | -7.66886 | 10166 ft | 196 kts | 209° |
| 2026-05-01 13:21 | 36.97518 | -7.68075 | 10102 ft | 199 kts | 241° |
| 2026-05-01 13:21 | 36.97233 | -7.69778 | 9786 ft | 208 kts | 272° |
| 2026-05-01 13:21 | 36.97757 | -7.71503 | 9381 ft | 221 kts | 305° |
| 2026-05-01 13:22 | 36.98980 | -7.72669 | 9124 ft | 225 kts | 338° |
| 2026-05-01 13:22 | 37.00504 | -7.72866 | 9118 ft | 210 kts | 17° |
| 2026-05-01 13:22 | 37.01529 | -7.72102 | 9979 ft | 145 kts | 56° |
| 2026-05-01 13:22 | 37.02233 | -7.70951 | 9855 ft | 196 kts | 58° |
| 2026-05-01 13:23 | 37.02874 | -7.69732 | 11174 ft | 149 kts | 63° |
| 2026-05-01 13:23 | 37.03399 | -7.68597 | 11758 ft | 160 kts | 67° |
| 2026-05-01 13:23 | 37.04039 | -7.67264 | 12009 ft | 197 kts | 54° |
| 2026-05-01 13:23 | 37.05041 | -7.65875 | 12218 ft | 233 kts | 47° |
| 2026-05-01 13:24 | 37.06249 | -7.64335 | 12465 ft | 261 kts | 47° |
| 2026-05-01 13:24 | 37.07584 | -7.62643 | 12664 ft | 288 kts | 46° |
| 2026-05-01 13:24 | 37.08556 | -7.61408 | 12732 ft | 314 kts | 46° |
| 2026-05-01 13:25 | 37.11936 | -7.56676 | 12124 ft | 417 kts | 61° |
| 2026-05-01 13:25 | 37.12919 | -7.53112 | 11862 ft | 444 kts | 83° |
| 2026-05-01 13:25 | 37.13409 | -7.49265 | 12322 ft | 455 kts | 82° |
| 2026-05-01 13:25 | 37.13697 | -7.45412 | 13631 ft | 440 kts | 97° |
| 2026-05-01 13:26 | 37.12778 | -7.41764 | 13746 ft | 450 kts | 124° |
| 2026-05-01 13:26 | 37.10568 | -7.39088 | 14341 ft | 435 kts | 154° |
| 2026-05-01 13:26 | 37.07951 | -7.37658 | 14834 ft | 396 kts | 162° |
| 2026-05-01 13:26 | 37.05198 | -7.37214 | 13142 ft | 411 kts | 187° |
| 2026-05-01 13:27 | 37.02420 | -7.38053 | 12254 ft | 406 kts | 196° |
| 2026-05-01 13:27 | 36.99683 | -7.39079 | 11314 ft | 407 kts | 198° |
| 2026-05-01 13:27 | 36.94433 | -7.41215 | 10469 ft | 380 kts | 199° |
| 2026-05-01 13:28 | 36.89688 | -7.43300 | 10227 ft | 344 kts | 199° |
| 2026-05-01 13:28 | 36.87479 | -7.44274 | 10053 ft | 330 kts | 199° |
| 2026-05-01 13:29 | 36.83257 | -7.46139 | 9530 ft | 310 kts | 199° |
| 2026-05-01 13:29 | 36.79304 | -7.47885 | 9023 ft | 293 kts | 199° |
| 2026-05-01 13:30 | 36.72132 | -7.51497 | 8019 ft | 266 kts | 220° |
| 2026-05-01 13:31 | 36.70570 | -7.55494 | 7531 ft | 262 kts | 266° |
| 2026-05-01 13:31 | 36.73304 | -7.60907 | 6811 ft | 260 kts | 332° |
| 2026-05-01 13:32 | 36.76486 | -7.62915 | 6323 ft | 253 kts | 332° |
| 2026-05-01 13:33 | 36.81082 | -7.65835 | 5572 ft | 244 kts | 332° |
| 2026-05-01 13:33 | 36.84090 | -7.67746 | 5067 ft | 238 kts | 332° |
| 2026-05-01 13:34 | 36.87015 | -7.69608 | 4562 ft | 233 kts | 332° |
| 2026-05-01 13:34 | 36.89861 | -7.71423 | 4178 ft | 223 kts | 332° |
| 2026-05-01 13:35 | 36.92498 | -7.73100 | 4021 ft | 199 kts | 333° |
| 2026-05-01 13:35 | 36.93531 | -7.73762 | 4003 ft | 184 kts | 332° |
| 2026-05-01 13:35 | 36.94830 | -7.74613 | 3731 ft | 178 kts | 333° |
| 2026-05-01 13:36 | 36.95920 | -7.75306 | 3275 ft | 176 kts | 333° |
| 2026-05-01 13:36 | 36.96961 | -7.75966 | 3156 ft | 156 kts | 333° |
| 2026-05-01 13:36 | 36.98560 | -7.77471 | 2820 ft | 147 kts | 300° |
| 2026-05-01 13:37 | 36.98885 | -7.78691 | 2718 ft | 150 kts | 279° |
| 2026-05-01 13:37 | 36.99068 | -7.79973 | 2547 ft | 149 kts | 279° |
| 2026-05-01 13:37 | 36.99250 | -7.81247 | 2361 ft | 148 kts | 279° |
| 2026-05-01 13:37 | 36.99433 | -7.82522 | 2208 ft | 151 kts | 279° |
| 2026-05-01 13:38 | 36.99796 | -7.85049 | 1766 ft | 145 kts | 278° |
| 2026-05-01 13:38 | 36.99973 | -7.86292 | 1570 ft | 145 kts | 278° |
| 2026-05-01 13:38 | 37.00150 | -7.87529 | 1384 ft | 144 kts | 277° |
| 2026-05-01 13:39 | 37.00321 | -7.88718 | 1191 ft | 134 kts | 277° |
| 2026-05-01 13:39 | 37.00480 | -7.89834 | 1018 ft | 129 kts | 276° |
| 2026-05-01 13:39 | 37.00637 | -7.90933 | 834 ft | 127 kts | 277° |
| 2026-05-01 13:39 | 37.00791 | -7.92015 | 676 ft | 124 kts | 277° |
| 2026-05-01 13:40 | 37.00943 | -7.93081 | 512 ft | 125 kts | 278° |
| 2026-05-01 13:40 | 37.01098 | -7.94170 | 354 ft | 127 kts | 276° |
| 2026-05-01 13:40 | 37.01252 | -7.95247 | 180 ft | 125 kts | 277° |
| 2026-05-01 13:40 | 37.01408 | -7.96310 | 35 ft | 122 kts | 278° |
| 2026-05-01 13:41 | 37.01532 | -7.97219 | 21 ft | 84 kts | 280° |
| 2026-05-01 13:41 | 37.01603 | -7.97724 | 19 ft | 40 kts | 279° |
| 2026-05-01 13:41 | 37.01682 | -7.97846 | 21 ft | 16 kts | 17° |
| 2026-05-01 13:41 | 37.01741 | -7.97763 | 20 ft | 7 kts | 67° |
| 2026-05-01 13:42 | 37.01760 | -7.97708 | 22 ft | 7 kts | 72° |
| 2026-05-01 13:42 | 37.01770 | -7.97653 | 20 ft | 6 kts | 84° |
| 2026-05-01 13:42 | 37.01767 | -7.97579 | 20 ft | 13 kts | 97° |
| 2026-05-01 13:42 | 37.01746 | -7.97413 | 20 ft | 25 kts | 101° |
| 2026-05-01 13:43 | 37.01707 | -7.97153 | 20 ft | 36 kts | 101° |
| 2026-05-01 13:43 | 37.01684 | -7.96932 | 20 ft | 15 kts | 68° |
| 2026-05-01 13:43 | 37.01781 | -7.96886 | 22 ft | 9 kts | 11° |
| 2026-05-01 13:43 | 37.01833 | -7.96899 | 22 ft | 7 kts | 324° |
| 2026-05-01 13:44 | 37.01879 | -7.96918 | 20 ft | 2 kts | 8° |
| 2026-05-01 13:44 | 37.01888 | -7.96916 | 20 ft | 3 kts | 10° |
| 2026-05-01 13:44 | 37.01914 | -7.96911 | 20 ft | 5 kts | 10° |
| 2026-05-01 13:44 | 37.01916 | -7.96910 | 20 ft | 0 kts | 10° |
| 2026-05-01 13:45 | 37.01917 | -7.96910 | 20 ft | 0 kts | 10° |